Time;durP1;ratioP1;P1;durP2;ratioP2;P2;SDS_P1;SDS_P2;PMS_P1;PMS_P2;Temp;Humidity;BMP_temperature;BMP_pressure;BME280_temperature;BME280_humidity;BME280_pressure;Samples;Min_cycle;Max_cycle;Signal;HPM_P1;HPM_P2
2021/10/05 00:01:23;;;;;;;3.17;2.40;;;;;;;14.70;66.61;97056.53;4995326;28;20026;-83
2021/10/05 00:03:48;;;;;;;2.75;2.55;;;;;;;14.70;66.67;97055.72;4996808;28;20041;-83
2021/10/05 00:06:14;;;;;;;2.50;2.03;;;;;;;14.69;66.33;97052.31;4997397;28;20030;-83
2021/10/05 00:08:39;;;;;;;4.20;2.60;;;;;;;14.69;66.61;97043.69;4997321;28;20042;-83
2021/10/05 00:11:05;;;;;;;3.05;2.75;;;;;;;14.71;66.65;97052.84;4997490;28;20084;-84
2021/10/05 00:13:30;;;;;;;1.95;1.80;;;;;;;14.68;66.59;97037.66;4981649;28;20029;-84
2021/10/05 00:15:55;;;;;;;1.55;1.45;;;;;;;14.69;66.49;97041.84;5013500;28;20076;-84
2021/10/05 00:18:21;;;;;;;2.25;1.42;;;;;;;14.68;66.85;97040.28;4994309;28;20034;-84
2021/10/05 00:20:46;;;;;;;5.07;1.92;;;;;;;14.69;66.58;97035.84;4962034;28;20043;-84
2021/10/05 00:23:12;;;;;;;2.08;1.25;;;;;;;14.72;66.22;97043.94;4977692;28;20034;-83
2021/10/05 00:25:38;;;;;;;2.22;1.35;;;;;;;14.69;66.47;97039.22;4969026;28;20105;-84
2021/10/05 00:28:03;;;;;;;1.50;1.30;;;;;;;14.68;66.22;97035.03;4994324;28;20081;-83
2021/10/05 00:30:29;;;;;;;1.52;1.42;;;;;;;14.70;66.83;97032.13;4996156;28;20037;-83
2021/10/05 00:32:54;;;;;;;1.77;1.67;;;;;;;14.66;66.80;97031.91;4997604;28;20065;-83
2021/10/05 00:35:20;;;;;;;1.60;1.50;;;;;;;14.70;66.80;97026.91;4980958;28;20084;-83
2021/10/05 00:37:45;;;;;;;1.55;1.33;;;;;;;14.74;66.66;97031.31;5013166;28;20719;-82
2021/10/05 00:40:11;;;;;;;1.20;1.10;;;;;;;14.72;66.75;97030.81;4993228;28;20037;-82
2021/10/05 00:42:36;;;;;;;2.45;1.10;;;;;;;14.72;66.46;97030.81;4976855;28;20501;-82
2021/10/05 00:45:02;;;;;;;0.90;0.90;;;;;;;14.73;66.60;97032.38;4960181;28;20061;-82
2021/10/05 00:47:28;;;;;;;1.67;1.23;;;;;;;14.76;66.29;97026.59;4960847;28;20042;-82
2021/10/05 00:49:53;;;;;;;2.13;1.05;;;;;;;14.79;66.33;97033.91;4969843;28;20072;-82
2021/10/05 00:52:19;;;;;;;2.10;1.30;;;;;;;14.80;66.23;97034.69;4996872;28;20026;-83
2021/10/05 00:54:45;;;;;;;1.77;1.48;;;;;;;14.78;66.24;97034.19;5012510;28;20105;-83
2021/10/05 00:57:11;;;;;;;1.42;1.20;;;;;;;14.71;66.16;97023.22;5012271;28;20041;-83
2021/10/05 00:59:37;;;;;;;1.52;1.42;;;;;;;14.72;66.78;97025.59;4996003;28;20117;-82
2021/10/05 01:02:07;;;;;;;2.35;1.27;;;;;;;14.55;67.26;97020.69;5011988;28;20117;-83
2021/10/05 01:04:33;;;;;;;1.52;1.20;;;;;;;14.72;67.00;97019.53;4995473;28;20037;-83
2021/10/05 01:07:05;;;;;;;2.60;1.48;;;;;;;14.59;67.39;97018.34;4995188;28;20037;-82
2021/10/05 01:09:31;;;;;;;1.50;1.40;;;;;;;14.71;66.80;97018.75;5011492;28;20042;-82
2021/10/05 01:11:57;;;;;;;1.75;1.30;;;;;;;14.75;66.94;96996.22;4978693;28;20025;-81
2021/10/05 01:14:23;;;;;;;1.30;1.20;;;;;;;14.75;67.29;97000.66;5011258;28;20036;-81
2021/10/05 01:16:50;;;;;;;2.03;1.55;;;;;;;14.74;67.09;97002.50;5010662;28;20026;-81
2021/10/05 01:19:15;;;;;;;2.75;1.27;;;;;;;14.74;67.16;96994.63;5009724;28;20042;-81
2021/10/05 01:21:40;;;;;;;1.80;1.40;;;;;;;14.74;67.47;96993.84;5013103;28;20109;-81
2021/10/05 01:24:09;;;;;;;2.67;1.75;;;;;;;14.70;67.13;96991.00;5012356;28;20038;-81
2021/10/05 01:26:35;;;;;;;1.80;1.30;;;;;;;14.75;67.10;96988.34;4978261;28;20040;-81
2021/10/05 01:29:02;;;;;;;2.17;1.52;;;;;;;14.74;66.82;96976.28;5010647;28;20474;-81
2021/10/05 01:31:40;;;;;;;1.20;1.10;;;;;;;14.51;67.43;96976.97;5010390;28;20069;-81
2021/10/05 01:34:05;;;;;;;1.48;1.20;;;;;;;14.70;66.93;96967.44;4978004;28;20096;-80
2021/10/05 01:36:31;;;;;;;1.30;0.95;;;;;;;14.70;67.18;96967.44;5004840;28;20758;-81
2021/10/05 01:38:57;;;;;;;1.25;1.10;;;;;;;14.68;67.36;96950.41;4963528;28;20025;-80
2021/10/05 01:41:22;;;;;;;1.55;1.08;;;;;;;14.65;67.33;96948.31;4980309;28;20036;-80
2021/10/05 01:43:48;;;;;;;2.10;1.38;;;;;;;14.64;67.30;96944.16;4994079;28;20089;-80
2021/10/05 01:46:14;;;;;;;2.55;1.55;;;;;;;14.67;67.23;96943.59;4993699;28;20041;-80
2021/10/05 01:48:43;;;;;;;1.40;0.93;;;;;;;14.50;67.63;96936.91;5010439;28;20038;-80
2021/10/05 01:51:09;;;;;;;1.98;1.38;;;;;;;14.66;67.53;96940.19;4993314;28;20058;-80
2021/10/05 01:53:34;;;;;;;3.92;1.50;;;;;;;14.66;67.59;96945.44;5010373;28;20068;-80
2021/10/05 01:56:00;;;;;;;2.05;1.55;;;;;;;14.65;67.43;96935.22;4993828;28;20048;-80
2021/10/05 01:58:26;;;;;;;1.38;1.27;;;;;;;14.59;67.41;96937.13;5012129;28;20172;-80
2021/10/05 02:00:51;;;;;;;1.88;1.60;;;;;;;14.63;67.48;96934.72;5009278;28;20351;-80
2021/10/05 02:03:19;;;;;;;2.05;1.58;;;;;;;14.65;67.18;96928.16;4993504;28;20046;-80
2021/10/05 02:05:44;;;;;;;1.65;1.55;;;;;;;14.68;67.29;96922.34;5009792;28;20034;-80
2021/10/05 02:08:10;;;;;;;1.77;1.67;;;;;;;14.66;67.41;96927.09;5009611;28;20125;-80
2021/10/05 02:10:36;;;;;;;2.10;1.90;;;;;;;14.64;67.60;96918.72;5018205;28;20099;-80
2021/10/05 02:13:02;;;;;;;1.88;1.67;;;;;;;14.66;67.45;96916.59;5012935;28;20029;-80
2021/10/05 02:15:28;;;;;;;1.55;1.45;;;;;;;14.70;67.56;96916.84;5029336;28;20490;-80
2021/10/05 02:17:53;;;;;;;1.60;1.50;;;;;;;14.61;67.78;96906.94;5016496;28;20038;-80
2021/10/05 02:20:19;;;;;;;2.28;2.00;;;;;;;14.63;68.03;96903.28;4992591;28;20044;-80
2021/10/05 02:22:44;;;;;;;2.50;1.80;;;;;;;14.63;67.97;96906.66;5009473;28;20029;-80
2021/10/05 02:25:09;;;;;;;2.28;2.08;;;;;;;14.64;68.03;96895.16;5009541;28;20099;-80
2021/10/05 02:27:35;;;;;;;2.05;1.85;;;;;;;14.66;68.29;96895.63;5009464;28;20478;-80
2021/10/05 02:30:01;;;;;;;2.05;1.77;;;;;;;14.65;68.02;96888.84;5009046;28;20831;-79
2021/10/05 02:32:26;;;;;;;2.25;2.00;;;;;;;14.69;67.85;96881.22;4993133;28;20482;-80
2021/10/05 02:34:53;;;;;;;2.35;1.67;;;;;;;14.66;67.88;96882.53;4993257;28;20038;-80
2021/10/05 02:37:18;;;;;;;2.10;1.67;;;;;;;14.63;68.07;96888.31;4976873;28;20075;-80
2021/10/05 02:39:44;;;;;;;2.83;1.48;;;;;;;14.56;67.89;96887.84;5009318;28;20026;-80
2021/10/05 02:42:09;;;;;;;2.22;1.38;;;;;;;14.60;67.80;96888.91;4973174;28;20519;-80
2021/10/05 02:44:35;;;;;;;2.67;1.20;;;;;;;14.52;67.77;96879.00;4957366;28;20041;-80
2021/10/05 02:47:00;;;;;;;2.83;1.55;;;;;;;14.61;67.97;96875.50;4976644;28;20120;-80
2021/10/05 02:49:26;;;;;;;2.85;1.73;;;;;;;14.58;67.64;96880.50;5008452;28;20378;-80
2021/10/05 02:51:51;;;;;;;2.13;1.58;;;;;;;14.63;68.03;96896.19;5009265;28;20037;-80
2021/10/05 02:54:17;;;;;;;2.28;1.40;;;;;;;14.61;68.00;96891.22;5008386;28;20052;-80
2021/10/05 02:56:42;;;;;;;1.77;1.60;;;;;;;14.61;67.87;96883.38;4976584;28;20030;-80
2021/10/05 02:59:07;;;;;;;1.75;1.17;;;;;;;14.63;67.80;96880.47;4976757;28;20030;-80
2021/10/05 03:01:33;;;;;;;1.83;1.70;;;;;;;14.62;67.71;96881.53;5008717;28;20448;-80
2021/10/05 03:03:58;;;;;;;1.85;1.55;;;;;;;14.63;67.18;96882.31;4976717;28;20061;-80
2021/10/05 03:06:23;;;;;;;1.95;1.77;;;;;;;14.57;67.91;96876.31;5010466;28;20061;-80
2021/10/05 03:08:52;;;;;;;1.90;1.60;;;;;;;14.59;68.10;96875.00;5009054;28;20087;-80
2021/10/05 03:11:18;;;;;;;2.03;1.83;;;;;;;14.59;67.73;96861.13;4989555;28;20049;-80
2021/10/05 03:13:43;;;;;;;1.70;1.55;;;;;;;14.60;67.98;96852.22;4989766;28;20026;-80
2021/10/05 03:16:09;;;;;;;1.90;1.50;;;;;;;14.60;67.72;96857.47;5005972;28;20550;-80
2021/10/05 03:18:34;;;;;;;1.60;1.50;;;;;;;14.59;67.85;96858.50;4973056;28;20030;-80
2021/10/05 03:21:00;;;;;;;1.90;1.70;;;;;;;14.57;67.92;96871.09;4989058;28;20067;-80
2021/10/05 03:23:26;;;;;;;2.50;1.75;;;;;;;14.58;68.02;96870.00;4989008;28;20413;-80
2021/10/05 03:25:51;;;;;;;1.65;1.55;;;;;;;14.61;67.94;96864.25;4973299;28;20030;-80
2021/10/05 03:28:17;;;;;;;1.95;1.77;;;;;;;14.67;67.64;96875.44;4989352;28;20125;-80
2021/10/05 03:30:42;;;;;;;2.00;1.60;;;;;;;14.64;67.93;96874.19;4989014;28;20081;-80
2021/10/05 03:33:08;;;;;;;1.90;1.48;;;;;;;14.65;67.84;96873.13;4989462;28;20038;-80
2021/10/05 03:35:33;;;;;;;1.85;1.75;;;;;;;14.62;67.82;96865.81;4972642;28;20030;-81
2021/10/05 03:37:58;;;;;;;1.45;1.35;;;;;;;14.59;67.83;96856.66;4992390;28;20041;-81
2021/10/05 03:40:24;;;;;;;1.58;1.48;;;;;;;14.57;68.13;96860.59;5008288;28;20505;-80
2021/10/05 03:42:49;;;;;;;1.73;1.60;;;;;;;14.57;68.34;96850.13;4977961;28;20117;-80
2021/10/05 03:45:15;;;;;;;2.83;2.15;;;;;;;14.52;68.40;96837.84;5012266;28;20037;-80
2021/10/05 03:47:40;;;;;;;2.35;1.73;;;;;;;14.54;68.12;96838.34;4963592;28;20034;-80
2021/10/05 03:50:08;;;;;;;2.20;2.00;;;;;;;14.53;68.09;96830.75;4995475;28;20038;-80
2021/10/05 03:52:33;;;;;;;1.88;1.70;;;;;;;14.58;68.08;96826.31;5012240;28;20421;-81
2021/10/05 03:54:59;;;;;;;4.10;2.15;;;;;;;14.56;68.24;96824.97;4980126;28;20029;-81
2021/10/05 03:57:24;;;;;;;2.42;2.20;;;;;;;14.52;68.43;96813.50;5011837;28;20030;-80
2021/10/05 03:59:50;;;;;;;2.95;2.65;;;;;;;14.57;67.95;96827.31;5014086;28;20081;-80
2021/10/05 04:02:15;;;;;;;2.97;2.47;;;;;;;14.55;68.07;96824.19;4995766;28;20541;-80
2021/10/05 04:04:40;;;;;;;2.95;2.10;;;;;;;14.58;68.20;96835.94;4979570;28;20026;-80
2021/10/05 04:07:06;;;;;;;2.72;2.50;;;;;;;14.55;68.03;96821.56;4995400;28;20068;-80
2021/10/05 04:09:31;;;;;;;4.15;2.67;;;;;;;14.60;67.93;96823.41;4978880;28;20041;-80
2021/10/05 04:11:57;;;;;;;2.78;2.40;;;;;;;14.59;67.84;96829.69;4995995;28;20053;-81
2021/10/05 04:14:22;;;;;;;2.15;1.95;;;;;;;14.59;68.04;96825.22;4995430;28;20034;-80
2021/10/05 04:16:47;;;;;;;2.40;2.20;;;;;;;14.56;67.95;96815.25;4995640;28;20037;-80
2021/10/05 04:19:13;;;;;;;2.60;2.40;;;;;;;14.51;67.87;96806.69;4995236;28;20042;-80
2021/10/05 04:21:38;;;;;;;3.15;2.45;;;;;;;14.49;68.09;96795.72;5011723;28;20378;-80
2021/10/05 04:24:04;;;;;;;2.50;2.10;;;;;;;14.50;68.14;96792.03;5029186;28;20504;-81
2021/10/05 04:26:30;;;;;;;2.50;1.92;;;;;;;14.52;67.92;96790.69;5014699;28;20505;-81
2021/10/05 04:28:55;;;;;;;3.08;1.73;;;;;;;14.59;68.08;96799.03;5015133;28;20033;-80
2021/10/05 04:31:20;;;;;;;2.47;2.20;;;;;;;14.63;67.96;96801.09;5014212;28;20034;-80
2021/10/05 04:33:46;;;;;;;2.55;2.22;;;;;;;14.61;67.94;96803.97;5014719;28;20413;-80
2021/10/05 04:36:11;;;;;;;2.55;2.35;;;;;;;14.64;67.96;96798.19;5012679;28;20110;-80
2021/10/05 04:38:37;;;;;;;3.45;2.70;;;;;;;14.69;68.05;96798.13;5011754;28;20087;-81
2021/10/05 04:41:02;;;;;;;3.22;2.92;;;;;;;14.71;68.03;96801.25;5014941;28;20052;-81
2021/10/05 04:43:28;;;;;;;3.40;3.10;;;;;;;14.77;68.01;96808.00;5031014;28;20037;-81
2021/10/05 04:45:53;;;;;;;3.80;3.13;;;;;;;14.73;68.01;96793.88;5014466;28;20091;-80
2021/10/05 04:48:19;;;;;;;3.13;2.63;;;;;;;14.71;68.20;96790.00;4998185;28;20064;-80
2021/10/05 04:50:44;;;;;;;3.03;2.72;;;;;;;14.66;68.35;96777.72;5030243;28;20120;-80
2021/10/05 04:53:10;;;;;;;2.95;2.65;;;;;;;14.68;67.97;96785.31;5013295;28;20055;-81
2021/10/05 04:55:37;;;;;;;3.42;2.88;;;;;;;14.70;68.34;96778.75;5013714;28;20049;-80
2021/10/05 04:58:03;;;;;;;3.42;2.65;;;;;;;14.75;68.40;96783.94;5010967;28;20030;-81
2021/10/05 05:00:28;;;;;;;3.08;2.72;;;;;;;14.71;68.10;96774.28;5008890;28;20370;-80
2021/10/05 05:02:54;;;;;;;3.72;2.88;;;;;;;14.70;68.07;96772.69;4993753;28;20516;-80
2021/10/05 05:05:19;;;;;;;2.83;2.20;;;;;;;14.65;68.18;96765.72;4977345;28;20036;-80
2021/10/05 05:07:44;;;;;;;3.05;2.70;;;;;;;14.65;68.27;96765.72;4993280;28;20696;-80
2021/10/05 05:10:10;;;;;;;3.80;3.05;;;;;;;14.65;68.21;96770.94;4993409;28;20040;-80
2021/10/05 05:12:35;;;;;;;3.40;2.85;;;;;;;14.63;68.32;96767.03;4993352;28;20042;-80
2021/10/05 05:15:01;;;;;;;3.80;3.08;;;;;;;14.60;68.21;96757.91;5010088;28;20034;-80
2021/10/05 05:17:27;;;;;;;3.03;2.40;;;;;;;14.63;68.10;96759.94;4993592;28;20057;-80
2021/10/05 05:19:52;;;;;;;4.13;2.70;;;;;;;14.66;68.21;96756.75;4993297;28;20041;-80
2021/10/05 05:22:18;;;;;;;2.85;2.47;;;;;;;14.64;68.35;96753.66;4993284;28;20057;-80
2021/10/05 05:24:43;;;;;;;6.38;3.22;;;;;;;14.62;68.18;96753.16;4993216;28;20030;-79
2021/10/05 05:27:09;;;;;;;4.00;3.05;;;;;;;14.66;68.33;96762.00;4993497;28;20034;-79
2021/10/05 05:29:34;;;;;;;3.13;2.45;;;;;;;14.69;68.01;96756.22;4992821;28;20033;-80
2021/10/05 05:31:59;;;;;;;3.08;2.70;;;;;;;14.64;67.99;96760.75;5010459;28;20061;-80
2021/10/05 05:34:25;;;;;;;3.50;3.10;;;;;;;14.65;68.07;96764.91;4972976;28;20037;-80
2021/10/05 05:36:52;;;;;;;3.67;3.13;;;;;;;14.66;68.11;96756.00;5003165;28;20018;-80
2021/10/05 05:39:17;;;;;;;3.65;3.22;;;;;;;14.68;68.25;96759.88;5010242;28;20034;-80
2021/10/05 05:41:45;;;;;;;3.33;3.00;;;;;;;14.63;68.37;96754.69;5008645;28;20029;-80
2021/10/05 05:44:11;;;;;;;3.42;3.13;;;;;;;14.62;68.11;96750.53;4994104;28;20432;-80
2021/10/05 05:46:37;;;;;;;3.88;3.47;;;;;;;14.65;68.12;96749.19;4993883;28;20037;-80
2021/10/05 05:49:02;;;;;;;4.82;3.70;;;;;;;14.65;68.18;96757.84;5009660;28;20370;-80
2021/10/05 05:51:27;;;;;;;3.67;3.33;;;;;;;14.63;68.30;96746.06;4977227;28;20030;-80
2021/10/05 05:53:53;;;;;;;4.72;3.53;;;;;;;14.66;68.64;96756.75;4993880;28;20034;-80
2021/10/05 05:56:18;;;;;;;4.25;3.30;;;;;;;14.70;68.40;96746.50;4993270;28;20072;-80
2021/10/05 05:58:43;;;;;;;5.65;4.00;;;;;;;14.70;68.32;96744.69;4993680;28;20068;-80
2021/10/05 06:01:09;;;;;;;5.72;4.18;;;;;;;14.71;68.64;96733.13;5012107;28;20493;-80
2021/10/05 06:03:34;;;;;;;6.10;4.05;;;;;;;14.70;68.41;96731.56;4992921;28;20429;-80
2021/10/05 06:06:00;;;;;;;5.43;3.67;;;;;;;14.80;68.07;96738.50;4993443;28;20072;-80
2021/10/05 06:08:25;;;;;;;5.93;4.43;;;;;;;14.82;68.20;96743.47;4993286;28;20042;-80
2021/10/05 06:10:50;;;;;;;7.95;4.63;;;;;;;14.81;68.40;96736.69;4993120;28;20038;-81
2021/10/05 06:13:16;;;;;;;6.25;4.53;;;;;;;14.86;68.31;96728.75;5009586;28;20053;-81
2021/10/05 06:15:41;;;;;;;6.28;4.90;;;;;;;14.86;68.14;96729.53;4993864;28;20029;-80
2021/10/05 06:18:07;;;;;;;5.43;4.43;;;;;;;14.92;68.43;96735.47;4993561;28;20033;-80
2021/10/05 06:20:32;;;;;;;6.60;5.30;;;;;;;14.88;68.34;96732.63;4960699;28;20061;-80
2021/10/05 06:22:58;;;;;;;6.88;5.07;;;;;;;14.90;68.37;96730.50;5009581;28;20033;-80
2021/10/05 06:25:28;;;;;;;6.90;4.70;;;;;;;14.73;68.63;96728.38;5009321;28;20030;-80
2021/10/05 06:27:56;;;;;;;7.18;5.07;;;;;;;14.95;68.42;96727.06;5009702;28;20033;-80
2021/10/05 06:30:22;;;;;;;6.85;5.50;;;;;;;15.02;68.27;96730.09;4993033;28;20030;-79
2021/10/05 06:32:53;;;;;;;6.45;5.10;;;;;;;15.04;68.20;96735.81;4992891;28;20079;-79
2021/10/05 06:35:20;;;;;;;6.72;4.78;;;;;;;15.07;68.19;96732.66;5009436;28;20042;-80
2021/10/05 06:37:45;;;;;;;5.57;4.13;;;;;;;15.06;68.28;96732.94;4987873;28;20406;-80
2021/10/05 06:40:11;;;;;;;7.60;5.30;;;;;;;15.05;68.48;96729.53;4988972;28;20033;-79
2021/10/05 06:42:36;;;;;;;8.05;5.28;;;;;;;15.07;68.51;96716.16;4992208;28;20091;-80
2021/10/05 06:45:04;;;;;;;6.53;5.00;;;;;;;15.06;68.60;96723.25;5005086;28;20033;-80
2021/10/05 06:47:30;;;;;;;5.72;4.40;;;;;;;15.19;68.63;96715.72;4985481;28;20525;-80
2021/10/05 06:49:55;;;;;;;5.82;4.90;;;;;;;15.25;68.42;96711.94;5003507;28;20038;-80
2021/10/05 06:52:20;;;;;;;5.20;4.25;;;;;;;15.30;67.84;96711.84;4992965;28;20038;-80
2021/10/05 06:54:46;;;;;;;6.15;4.55;;;;;;;15.36;68.16;96716.75;4992782;28;20026;-80
2021/10/05 06:57:11;;;;;;;4.80;4.30;;;;;;;15.42;67.83;96708.78;5009040;28;20512;-80
2021/10/05 06:59:36;;;;;;;6.47;4.35;;;;;;;15.47;68.02;96712.13;4976182;28;20026;-80
2021/10/05 07:02:02;;;;;;;5.05;4.47;;;;;;;15.52;68.19;96719.13;4992547;28;20141;-80
2021/10/05 07:04:27;;;;;;;4.85;4.03;;;;;;;15.54;68.16;96709.13;4992820;28;20108;-80
2021/10/05 07:06:53;;;;;;;5.45;3.90;;;;;;;15.55;67.76;96713.31;5008944;28;20621;-80
2021/10/05 07:09:19;;;;;;;5.60;4.45;;;;;;;15.46;68.22;96705.31;4991832;28;20674;-80
2021/10/05 07:11:47;;;;;;;6.53;4.30;;;;;;;15.52;67.97;96704.19;5008693;28;20050;-80
2021/10/05 07:14:12;;;;;;;6.15;4.25;;;;;;;15.61;67.80;96706.91;4976588;28;20515;-80
2021/10/05 07:16:37;;;;;;;5.38;4.53;;;;;;;15.58;67.91;96704.88;4993696;28;20121;-80
2021/10/05 07:19:03;;;;;;;6.13;4.32;;;;;;;15.53;68.15;96695.22;5007684;28;20814;-80
2021/10/05 07:21:28;;;;;;;4.65;3.88;;;;;;;15.59;67.71;96695.13;4980314;28;20347;-80
2021/10/05 07:23:53;;;;;;;4.75;3.97;;;;;;;15.59;68.12;96688.03;5011828;28;20105;-80
2021/10/05 07:26:19;;;;;;;4.50;3.70;;;;;;;15.62;68.22;96691.94;4989556;28;20461;-80
2021/10/05 07:28:45;;;;;;;4.38;3.97;;;;;;;15.70;67.55;96686.03;4992355;28;20424;-80
2021/10/05 07:31:12;;;;;;;4.65;3.42;;;;;;;15.70;67.68;96699.16;4976961;28;20121;-80
2021/10/05 07:33:37;;;;;;;3.92;3.30;;;;;;;15.69;66.95;96681.84;4983228;28;20030;-80
2021/10/05 07:36:03;;;;;;;4.43;3.00;;;;;;;15.68;67.30;96680.31;4991081;28;20053;-80
2021/10/05 07:38:28;;;;;;;5.32;3.40;;;;;;;15.77;67.24;96683.84;4985696;28;20088;-80
2021/10/05 07:40:54;;;;;;;3.53;3.00;;;;;;;15.80;67.50;96680.63;4986331;28;21403;-80
2021/10/05 07:43:20;;;;;;;3.28;2.97;;;;;;;15.84;67.33;96678.22;4985052;28;20026;-80
2021/10/05 07:45:47;;;;;;;3.55;3.17;;;;;;;15.88;66.89;96669.44;4985568;28;20089;-80
2021/10/05 07:48:12;;;;;;;3.65;3.33;;;;;;;15.97;67.37;96676.66;4984615;28;20121;-80
2021/10/05 07:50:38;;;;;;;4.70;3.40;;;;;;;15.99;67.67;96664.81;4977917;28;20113;-80
2021/10/05 07:53:03;;;;;;;3.78;2.90;;;;;;;16.01;67.42;96660.03;4987694;28;20373;-80
2021/10/05 07:55:31;;;;;;;3.17;2.88;;;;;;;16.13;67.61;96659.53;5003895;28;20038;-80
2021/10/05 07:57:57;;;;;;;3.20;2.75;;;;;;;16.14;67.12;96666.34;4988707;28;20510;-80
2021/10/05 08:00:22;;;;;;;2.40;2.20;;;;;;;16.22;67.33;96663.03;5000224;28;20092;-80
2021/10/05 08:02:48;;;;;;;3.17;2.88;;;;;;;16.15;67.02;96657.41;4997007;28;20030;-80
2021/10/05 08:05:15;;;;;;;3.47;3.10;;;;;;;16.17;66.47;96667.63;4986223;28;20076;-80
2021/10/05 08:07:42;;;;;;;2.53;2.33;;;;;;;16.15;66.47;96672.38;5003896;28;20044;-79
2021/10/05 08:10:08;;;;;;;3.22;2.92;;;;;;;16.21;66.48;96666.75;4992051;28;20026;-80
2021/10/05 08:12:33;;;;;;;3.90;3.33;;;;;;;16.10;66.93;96678.50;5002831;28;20100;-80
2021/10/05 08:14:59;;;;;;;3.22;2.88;;;;;;;16.11;67.10;96682.72;4981012;28;20035;-80
2021/10/05 08:17:24;;;;;;;3.45;2.72;;;;;;;16.09;66.40;96682.19;5000925;28;20046;-80
2021/10/05 08:19:50;;;;;;;2.50;2.30;;;;;;;16.08;66.08;96680.66;4999628;28;20026;-80
2021/10/05 08:22:16;;;;;;;2.63;2.25;;;;;;;15.95;67.51;96689.28;4980108;28;20053;-80
2021/10/05 08:24:41;;;;;;;4.25;2.60;;;;;;;16.00;67.48;96681.31;4974231;28;20034;-80
2021/10/05 08:27:10;;;;;;;2.33;2.13;;;;;;;16.09;66.91;96683.00;4986420;28;20041;-80
2021/10/05 08:29:40;;;;;;;2.72;2.33;;;;;;;16.09;66.59;96672.50;4981363;28;20073;-80
2021/10/05 08:32:06;;;;;;;2.50;2.17;;;;;;;16.09;66.45;96674.31;4995850;28;20030;-80
2021/10/05 08:34:31;;;;;;;2.42;1.90;;;;;;;16.12;66.29;96673.75;5011442;28;20042;-80
2021/10/05 08:36:57;;;;;;;2.53;2.33;;;;;;;16.13;66.70;96664.03;5010973;28;20083;-80
2021/10/05 08:39:22;;;;;;;3.58;2.17;;;;;;;16.18;66.73;96667.31;4977269;28;20406;-81
2021/10/05 08:41:48;;;;;;;2.20;2.00;;;;;;;16.13;66.64;96658.78;4993044;28;20030;-80
2021/10/05 08:44:15;;;;;;;2.20;2.00;;;;;;;16.14;66.91;96655.84;4993034;28;20036;-81
2021/10/05 08:46:40;;;;;;;2.00;1.90;;;;;;;16.23;66.65;96651.47;4976744;28;20113;-80
2021/10/05 08:49:06;;;;;;;1.55;1.40;;;;;;;16.32;65.91;96653.41;4976823;28;20117;-80
2021/10/05 08:51:32;;;;;;;2.03;1.50;;;;;;;16.52;66.49;96644.31;5005634;28;20079;-81
2021/10/05 08:53:58;;;;;;;2.75;1.73;;;;;;;16.48;65.08;96639.66;5009113;28;20117;-80
2021/10/05 08:56:23;;;;;;;1.38;1.17;;;;;;;16.61;65.14;96635.44;5008891;28;20223;-80
2021/10/05 08:58:48;;;;;;;1.20;1.10;;;;;;;16.63;65.19;96641.16;5008497;28;20405;-81
2021/10/05 09:01:16;;;;;;;1.75;1.63;;;;;;;16.59;65.27;96634.97;4990926;28;20038;-81
2021/10/05 09:03:50;;;;;;;2.00;1.30;;;;;;;16.16;66.03;96648.47;4982007;28;20499;-80
2021/10/05 09:06:17;;;;;;;1.47;1.37;;;;;;;16.54;65.71;96639.56;4990754;28;20063;-80
2021/10/05 09:08:44;;;;;;;1.33;1.02;;;;;;;16.66;65.62;96639.81;4970592;28;20464;-81
2021/10/05 09:11:11;;;;;;;1.27;1.17;;;;;;;16.84;64.95;96633.66;4975356;28;20034;-81
2021/10/05 09:13:42;;;;;;;1.17;1.05;;;;;;;16.62;66.03;96641.47;5008511;28;20429;-81
2021/10/05 09:16:18;;;;;;;1.65;0.70;;;;;;;16.53;65.00;96638.75;4973113;28;20030;-80
2021/10/05 09:19:05;;;;;;;1.25;0.80;;;;;;;16.75;65.53;96643.28;5007571;28;20041;-81
2021/10/05 09:21:36;;;;;;;0.80;0.70;;;;;;;16.88;63.91;96640.94;5008766;28;20426;-82
2021/10/05 09:24:07;;;;;;;1.20;1.10;;;;;;;16.88;64.79;96646.97;5008369;28;20124;-81
2021/10/05 09:26:42;;;;;;;1.52;0.90;;;;;;;16.86;64.25;96638.59;5008465;28;20524;-81
2021/10/05 09:29:16;;;;;;;1.25;0.90;;;;;;;17.01;64.23;96635.59;5007711;28;20055;-81
2021/10/05 09:32:01;;;;;;;1.75;0.80;;;;;;;16.89;64.44;96640.63;4972053;28;20497;-81
2021/10/05 09:34:34;;;;;;;1.20;0.82;;;;;;;16.91;62.94;96641.09;5008972;28;20080;-81
2021/10/05 09:37:13;;;;;;;1.27;1.00;;;;;;;17.06;63.62;96637.34;5008846;28;20251;-81
2021/10/05 09:39:39;;;;;;;0.77;0.77;;;;;;;17.35;63.00;96630.88;5008372;28;20037;-81
2021/10/05 09:42:05;;;;;;;1.63;0.85;;;;;;;17.50;63.06;96629.72;4991998;28;20031;-81
2021/10/05 09:44:30;;;;;;;0.88;0.65;;;;;;;17.57;62.83;96638.72;5006044;28;20495;-81
2021/10/05 09:46:55;;;;;;;0.90;0.80;;;;;;;17.57;63.75;96648.50;4991191;28;20045;-81
2021/10/05 09:49:23;;;;;;;1.25;0.80;;;;;;;17.55;62.88;96642.75;4975134;28;20040;-81
2021/10/05 09:51:56;;;;;;;1.27;0.80;;;;;;;17.06;61.77;96639.97;4975086;28;20029;-80
2021/10/05 09:54:21;;;;;;;1.13;0.70;;;;;;;17.24;61.37;96640.88;4991962;28;20515;-82
2021/10/05 09:56:47;;;;;;;0.80;0.80;;;;;;;17.38;62.21;96638.19;5008397;28;20123;-81
2021/10/05 09:59:12;;;;;;;1.40;0.93;;;;;;;17.26;61.94;96625.56;4991032;28;20034;-82
2021/10/05 10:01:38;;;;;;;0.80;0.80;;;;;;;17.46;62.21;96634.03;5006630;28;20034;-82
2021/10/05 10:04:04;;;;;;;0.90;0.90;;;;;;;17.42;62.35;96634.63;4998363;28;20049;-82
2021/10/05 10:06:29;;;;;;;1.60;1.10;;;;;;;17.49;61.10;96628.16;4963760;28;20030;-81
2021/10/05 10:08:56;;;;;;;1.80;1.00;;;;;;;17.45;61.08;96620.09;4997276;28;20026;-84
2021/10/05 10:11:23;;;;;;;0.80;0.80;;;;;;;17.52;61.11;96630.19;5006147;28;20113;-85
2021/10/05 10:13:49;;;;;;;1.65;0.80;;;;;;;17.72;60.88;96632.31;4991907;28;20037;-84
2021/10/05 10:16:16;;;;;;;1.30;0.82;;;;;;;17.75;62.52;96623.81;4991178;28;20025;-83
2021/10/05 10:18:58;;;;;;;1.25;0.60;;;;;;;17.65;61.20;96623.28;4990947;28;20026;-84
2021/10/05 10:21:30;;;;;;;0.82;0.77;;;;;;;17.61;61.05;96620.47;5007631;28;20045;-84
2021/10/05 10:24:14;;;;;;;1.65;1.13;;;;;;;17.74;62.67;96632.78;4982881;28;20027;-82
2021/10/05 10:26:44;;;;;;;2.13;0.90;;;;;;;17.96;61.91;96623.28;4994600;28;20068;-83
2021/10/05 10:29:13;;;;;;;0.77;0.77;;;;;;;17.96;60.45;96623.28;4989321;28;20033;-83
2021/10/05 10:31:40;;;;;;;0.80;0.68;;;;;;;17.94;60.56;96620.16;4955687;28;20022;-82
2021/10/05 10:34:20;;;;;;;2.35;0.88;;;;;;;17.81;61.79;96621.81;4971449;28;20026;-82
2021/10/05 10:36:45;;;;;;;1.48;0.90;;;;;;;18.00;62.15;96608.41;4978406;28;20502;-83
2021/10/05 10:39:18;;;;;;;0.68;0.60;;;;;;;17.92;59.91;96612.59;4964325;28;20045;-82
2021/10/05 10:41:46;;;;;;;1.05;0.60;;;;;;;17.95;59.24;96609.31;4969415;28;20257;-82
2021/10/05 10:44:13;;;;;;;1.67;0.70;;;;;;;18.19;59.40;96610.00;4988028;28;20030;-82
2021/10/05 10:46:40;;;;;;;0.55;0.55;;;;;;;18.23;58.51;96605.66;4971481;28;20027;-82
2021/10/05 10:49:31;;;;;;;1.13;1.02;;;;;;;17.96;58.50;96605.63;4986745;28;20050;-83
2021/10/05 10:51:57;;;;;;;2.38;0.75;;;;;;;18.56;58.35;96600.75;4972077;28;20049;-83
2021/10/05 10:54:26;;;;;;;1.05;0.80;;;;;;;18.84;60.17;96598.59;4991569;28;20474;-83
2021/10/05 10:57:04;;;;;;;1.70;0.57;;;;;;;19.52;56.50;96592.72;5011021;28;20029;-83
2021/10/05 10:59:30;;;;;;;1.05;0.75;;;;;;;20.28;54.74;96600.91;4990830;28;20030;-83
2021/10/05 11:02:02;;;;;;;2.75;0.60;;;;;;;20.20;51.78;96581.34;4991754;28;20089;-82
2021/10/05 11:04:28;;;;;;;0.60;0.60;;;;;;;20.63;52.67;96585.59;5009588;28;20354;-83
2021/10/05 11:06:56;;;;;;;0.82;0.60;;;;;;;20.71;50.94;96576.03;4994601;28;20038;-83
2021/10/05 11:09:30;;;;;;;1.70;0.60;;;;;;;20.44;50.08;96572.00;4994271;28;20454;-84
2021/10/05 11:11:59;;;;;;;0.53;0.53;;;;;;;20.41;51.28;96581.38;4994416;28;20442;-84
2021/10/05 11:14:26;;;;;;;0.98;0.70;;;;;;;20.39;51.21;96576.41;4986009;28;20293;-82
2021/10/05 11:17:11;;;;;;;0.60;0.40;;;;;;;20.16;53.83;96572.50;4991299;28;20474;-82
2021/10/05 11:19:38;;;;;;;2.60;0.60;;;;;;;20.47;52.94;96566.06;4974777;28;20566;-82
2021/10/05 11:22:08;;;;;;;0.50;0.50;;;;;;;20.47;53.25;96553.63;4991075;28;20038;-82
2021/10/05 11:24:44;;;;;;;1.00;0.77;;;;;;;20.98;50.34;96556.16;5014389;28;20530;-82
2021/10/05 11:27:21;;;;;;;1.77;0.50;;;;;;;21.49;50.16;96555.94;5030277;28;20033;-82
2021/10/05 11:29:47;;;;;;;1.00;0.60;;;;;;;22.37;47.30;96547.59;4997061;28;20095;-85
2021/10/05 11:32:15;;;;;;;2.55;0.77;;;;;;;22.11;46.61;96547.97;5014108;28;20044;-83